sensor_id;sensor_type;location;lat;lon;timestamp;P1;durP1;ratioP1;P2;durP2;ratioP2
71298;SDS011;59083;47.974;21.722;2022-09-09T00:05:37;24.95;;;7.40;;
71298;SDS011;59083;47.974;21.722;2022-09-09T00:08:48;14.65;;;6.68;;
71298;SDS011;59083;47.974;21.722;2022-09-09T00:12:02;13.80;;;7.25;;
71298;SDS011;59083;47.974;21.722;2022-09-09T00:15:12;12.45;;;6.43;;
71298;SDS011;59083;47.974;21.722;2022-09-09T00:21:43;12.80;;;6.57;;
71298;SDS011;59083;47.974;21.722;2022-09-09T00:25:10;12.13;;;5.62;;
71298;SDS011;59083;47.974;21.722;2022-09-09T00:28:18;9.48;;;5.05;;
71298;SDS011;59083;47.974;21.722;2022-09-09T00:31:33;14.38;;;5.50;;
71298;SDS011;59083;47.974;21.722;2022-09-09T00:34:34;13.77;;;4.63;;
71298;SDS011;59083;47.974;21.722;2022-09-09T00:37:37;11.45;;;4.50;;
71298;SDS011;59083;47.974;21.722;2022-09-09T00:41:03;15.20;;;4.62;;
71298;SDS011;59083;47.974;21.722;2022-09-09T00:44:32;12.43;;;4.15;;
71298;SDS011;59083;47.974;21.722;2022-09-09T00:47:46;15.63;;;3.70;;
71298;SDS011;59083;47.974;21.722;2022-09-09T00:50:55;10.87;;;3.97;;
71298;SDS011;59083;47.974;21.722;2022-09-09T00:57:26;10.95;;;4.45;;
71298;SDS011;59083;47.974;21.722;2022-09-09T01:00:35;11.15;;;5.00;;
71298;SDS011;59083;47.974;21.722;2022-09-09T01:03:53;14.73;;;5.87;;
71298;SDS011;59083;47.974;21.722;2022-09-09T01:06:58;10.70;;;6.03;;
71298;SDS011;59083;47.974;21.722;2022-09-09T01:10:26;14.13;;;6.90;;
71298;SDS011;59083;47.974;21.722;2022-09-09T01:13:34;11.85;;;6.90;;
71298;SDS011;59083;47.974;21.722;2022-09-09T01:16:37;11.20;;;6.75;;
71298;SDS011;59083;47.974;21.722;2022-09-09T01:29:35;12.10;;;7.00;;
71298;SDS011;59083;47.974;21.722;2022-09-09T01:32:41;13.20;;;6.80;;
71298;SDS011;59083;47.974;21.722;2022-09-09T01:35:57;11.20;;;7.00;;
71298;SDS011;59083;47.974;21.722;2022-09-09T01:39:05;15.00;;;7.10;;
71298;SDS011;59083;47.974;21.722;2022-09-09T01:42:08;14.65;;;6.45;;
71298;SDS011;59083;47.974;21.722;2022-09-09T01:45:12;12.07;;;5.50;;
71298;SDS011;59083;47.974;21.722;2022-09-09T01:48:13;11.68;;;5.72;;
71298;SDS011;59083;47.974;21.722;2022-09-09T01:51:15;9.47;;;4.93;;
71298;SDS011;59083;47.974;21.722;2022-09-09T01:54:17;9.43;;;5.00;;
71298;SDS011;59083;47.974;21.722;2022-09-09T01:57:27;9.98;;;5.10;;
71298;SDS011;59083;47.974;21.722;2022-09-09T02:00:31;9.38;;;5.47;;
71298;SDS011;59083;47.974;21.722;2022-09-09T02:03:37;9.40;;;5.47;;
71298;SDS011;59083;47.974;21.722;2022-09-09T02:06:39;11.47;;;5.20;;
71298;SDS011;59083;47.974;21.722;2022-09-09T02:09:42;9.70;;;5.40;;
71298;SDS011;59083;47.974;21.722;2022-09-09T02:12:53;10.43;;;5.30;;
71298;SDS011;59083;47.974;21.722;2022-09-09T02:19:28;8.80;;;4.90;;
71298;SDS011;59083;47.974;21.722;2022-09-09T02:22:32;7.87;;;4.67;;
71298;SDS011;59083;47.974;21.722;2022-09-09T02:25:35;9.80;;;4.80;;
71298;SDS011;59083;47.974;21.722;2022-09-09T02:28:38;9.90;;;5.60;;
71298;SDS011;59083;47.974;21.722;2022-09-09T02:31:43;10.48;;;5.55;;
71298;SDS011;59083;47.974;21.722;2022-09-09T02:34:53;9.88;;;5.70;;
71298;SDS011;59083;47.974;21.722;2022-09-09T02:38:01;8.65;;;5.78;;
71298;SDS011;59083;47.974;21.722;2022-09-09T02:41:06;10.87;;;6.40;;
71298;SDS011;59083;47.974;21.722;2022-09-09T02:44:11;12.73;;;7.10;;
71298;SDS011;59083;47.974;21.722;2022-09-09T02:50:54;8.68;;;5.43;;
71298;SDS011;59083;47.974;21.722;2022-09-09T02:54:28;10.32;;;5.75;;
71298;SDS011;59083;47.974;21.722;2022-09-09T02:57:34;12.87;;;6.53;;
71298;SDS011;59083;47.974;21.722;2022-09-09T03:00:39;10.55;;;5.90;;
71298;SDS011;59083;47.974;21.722;2022-09-09T03:03:41;11.88;;;5.95;;
71298;SDS011;59083;47.974;21.722;2022-09-09T03:06:43;10.75;;;6.43;;
71298;SDS011;59083;47.974;21.722;2022-09-09T03:09:46;10.43;;;6.63;;
71298;SDS011;59083;47.974;21.722;2022-09-09T03:12:48;9.77;;;6.10;;
71298;SDS011;59083;47.974;21.722;2022-09-09T03:15:49;10.32;;;5.80;;
71298;SDS011;59083;47.974;21.722;2022-09-09T03:18:51;11.20;;;6.15;;
71298;SDS011;59083;47.974;21.722;2022-09-09T03:21:54;10.30;;;6.03;;
71298;SDS011;59083;47.974;21.722;2022-09-09T03:24:55;10.27;;;6.20;;
71298;SDS011;59083;47.974;21.722;2022-09-09T03:27:57;9.77;;;6.30;;
71298;SDS011;59083;47.974;21.722;2022-09-09T03:30:59;11.12;;;6.75;;
71298;SDS011;59083;47.974;21.722;2022-09-09T03:34:07;11.88;;;7.12;;
71298;SDS011;59083;47.974;21.722;2022-09-09T03:37:09;11.35;;;6.25;;
71298;SDS011;59083;47.974;21.722;2022-09-09T03:40:11;11.18;;;6.62;;
71298;SDS011;59083;47.974;21.722;2022-09-09T03:43:13;10.20;;;6.30;;
71298;SDS011;59083;47.974;21.722;2022-09-09T03:46:18;9.98;;;6.60;;
71298;SDS011;59083;47.974;21.722;2022-09-09T03:49:20;11.00;;;6.97;;
71298;SDS011;59083;47.974;21.722;2022-09-09T03:52:22;10.38;;;6.65;;
71298;SDS011;59083;47.974;21.722;2022-09-09T03:55:26;12.60;;;7.30;;
71298;SDS011;59083;47.974;21.722;2022-09-09T03:58:27;10.70;;;6.83;;
71298;SDS011;59083;47.974;21.722;2022-09-09T04:01:31;10.60;;;6.95;;
71298;SDS011;59083;47.974;21.722;2022-09-09T04:04:32;11.07;;;6.93;;
71298;SDS011;59083;47.974;21.722;2022-09-09T04:07:33;12.70;;;7.75;;
71298;SDS011;59083;47.974;21.722;2022-09-09T04:10:35;13.20;;;6.70;;
71298;SDS011;59083;47.974;21.722;2022-09-09T04:13:38;10.23;;;6.53;;
71298;SDS011;59083;47.974;21.722;2022-09-09T04:16:41;12.20;;;7.10;;
71298;SDS011;59083;47.974;21.722;2022-09-09T04:19:45;12.70;;;6.85;;
71298;SDS011;59083;47.974;21.722;2022-09-09T04:22:48;14.48;;;9.52;;
71298;SDS011;59083;47.974;21.722;2022-09-09T04:25:52;11.47;;;7.27;;
71298;SDS011;59083;47.974;21.722;2022-09-09T04:28:55;10.63;;;7.47;;
71298;SDS011;59083;47.974;21.722;2022-09-09T04:31:57;11.80;;;7.15;;
71298;SDS011;59083;47.974;21.722;2022-09-09T04:34:58;12.10;;;7.55;;
71298;SDS011;59083;47.974;21.722;2022-09-09T04:37:59;14.18;;;8.00;;
71298;SDS011;59083;47.974;21.722;2022-09-09T04:41:01;14.07;;;8.03;;
71298;SDS011;59083;47.974;21.722;2022-09-09T04:44:03;13.33;;;8.03;;
71298;SDS011;59083;47.974;21.722;2022-09-09T04:47:04;14.25;;;7.82;;
71298;SDS011;59083;47.974;21.722;2022-09-09T04:50:06;12.37;;;7.90;;
71298;SDS011;59083;47.974;21.722;2022-09-09T04:53:08;12.63;;;7.70;;
71298;SDS011;59083;47.974;21.722;2022-09-09T04:56:12;13.37;;;7.50;;
71298;SDS011;59083;47.974;21.722;2022-09-09T04:59:15;12.10;;;8.20;;
71298;SDS011;59083;47.974;21.722;2022-09-09T05:02:16;15.32;;;8.63;;
71298;SDS011;59083;47.974;21.722;2022-09-09T05:05:18;12.63;;;7.57;;
71298;SDS011;59083;47.974;21.722;2022-09-09T05:08:20;12.65;;;7.40;;
71298;SDS011;59083;47.974;21.722;2022-09-09T05:11:27;12.70;;;8.23;;
71298;SDS011;59083;47.974;21.722;2022-09-09T05:14:31;17.23;;;10.90;;
71298;SDS011;59083;47.974;21.722;2022-09-09T05:17:33;13.15;;;8.48;;
71298;SDS011;59083;47.974;21.722;2022-09-09T05:20:35;13.60;;;8.23;;
71298;SDS011;59083;47.974;21.722;2022-09-09T05:23:36;14.70;;;9.35;;
71298;SDS011;59083;47.974;21.722;2022-09-09T05:26:38;12.37;;;8.27;;
71298;SDS011;59083;47.974;21.722;2022-09-09T05:29:41;13.47;;;8.53;;
71298;SDS011;59083;47.974;21.722;2022-09-09T05:32:44;12.30;;;8.13;;
71298;SDS011;59083;47.974;21.722;2022-09-09T05:35:46;15.20;;;8.00;;
71298;SDS011;59083;47.974;21.722;2022-09-09T05:38:48;13.20;;;8.25;;
71298;SDS011;59083;47.974;21.722;2022-09-09T05:41:51;14.40;;;8.87;;
71298;SDS011;59083;47.974;21.722;2022-09-09T05:44:52;12.70;;;8.80;;
71298;SDS011;59083;47.974;21.722;2022-09-09T05:47:55;14.18;;;8.98;;
71298;SDS011;59083;47.974;21.722;2022-09-09T05:50:57;14.43;;;8.85;;
71298;SDS011;59083;47.974;21.722;2022-09-09T05:54:00;14.68;;;9.20;;
71298;SDS011;59083;47.974;21.722;2022-09-09T05:57:02;15.07;;;9.10;;
71298;SDS011;59083;47.974;21.722;2022-09-09T06:00:04;13.30;;;8.80;;
71298;SDS011;59083;47.974;21.722;2022-09-09T06:03:14;16.27;;;9.32;;
71298;SDS011;59083;47.974;21.722;2022-09-09T06:06:21;15.45;;;9.18;;
71298;SDS011;59083;47.974;21.722;2022-09-09T06:09:25;16.52;;;10.40;;
71298;SDS011;59083;47.974;21.722;2022-09-09T06:12:26;17.27;;;9.80;;
71298;SDS011;59083;47.974;21.722;2022-09-09T06:15:27;14.60;;;9.33;;
71298;SDS011;59083;47.974;21.722;2022-09-09T06:18:31;15.48;;;10.98;;
71298;SDS011;59083;47.974;21.722;2022-09-09T06:21:33;13.55;;;9.70;;
71298;SDS011;59083;47.974;21.722;2022-09-09T06:24:40;21.75;;;13.35;;
71298;SDS011;59083;47.974;21.722;2022-09-09T06:27:42;14.70;;;9.93;;
71298;SDS011;59083;47.974;21.722;2022-09-09T06:30:44;15.67;;;10.67;;
71298;SDS011;59083;47.974;21.722;2022-09-09T06:33:46;17.45;;;11.48;;
71298;SDS011;59083;47.974;21.722;2022-09-09T06:36:47;14.65;;;8.60;;
71298;SDS011;59083;47.974;21.722;2022-09-09T06:39:49;15.50;;;8.45;;
71298;SDS011;59083;47.974;21.722;2022-09-09T06:42:51;15.43;;;9.33;;
71298;SDS011;59083;47.974;21.722;2022-09-09T06:46:00;14.07;;;8.87;;
71298;SDS011;59083;47.974;21.722;2022-09-09T06:49:03;13.35;;;8.38;;
71298;SDS011;59083;47.974;21.722;2022-09-09T06:52:04;14.38;;;8.95;;
71298;SDS011;59083;47.974;21.722;2022-09-09T06:55:06;13.27;;;8.20;;
71298;SDS011;59083;47.974;21.722;2022-09-09T06:58:08;14.30;;;9.47;;
71298;SDS011;59083;47.974;21.722;2022-09-09T07:01:11;13.90;;;8.77;;
71298;SDS011;59083;47.974;21.722;2022-09-09T07:04:14;15.50;;;9.13;;
71298;SDS011;59083;47.974;21.722;2022-09-09T07:07:16;13.23;;;8.95;;
71298;SDS011;59083;47.974;21.722;2022-09-09T07:10:18;15.93;;;9.05;;
71298;SDS011;59083;47.974;21.722;2022-09-09T07:13:24;18.77;;;8.70;;
71298;SDS011;59083;47.974;21.722;2022-09-09T07:16:26;12.47;;;7.70;;
71298;SDS011;59083;47.974;21.722;2022-09-09T07:19:29;12.25;;;8.52;;
71298;SDS011;59083;47.974;21.722;2022-09-09T07:22:30;13.27;;;8.15;;
71298;SDS011;59083;47.974;21.722;2022-09-09T07:25:32;17.98;;;9.10;;
71298;SDS011;59083;47.974;21.722;2022-09-09T07:28:33;13.77;;;9.03;;
71298;SDS011;59083;47.974;21.722;2022-09-09T07:31:36;11.93;;;8.67;;
71298;SDS011;59083;47.974;21.722;2022-09-09T07:34:40;16.25;;;8.77;;
71298;SDS011;59083;47.974;21.722;2022-09-09T07:37:42;14.93;;;8.15;;
71298;SDS011;59083;47.974;21.722;2022-09-09T07:40:44;15.20;;;8.57;;
71298;SDS011;59083;47.974;21.722;2022-09-09T07:43:46;13.90;;;7.70;;
71298;SDS011;59083;47.974;21.722;2022-09-09T07:46:49;13.90;;;8.30;;
71298;SDS011;59083;47.974;21.722;2022-09-09T07:49:52;13.25;;;8.75;;
71298;SDS011;59083;47.974;21.722;2022-09-09T07:52:54;14.57;;;8.80;;
71298;SDS011;59083;47.974;21.722;2022-09-09T07:55:55;14.10;;;8.27;;
71298;SDS011;59083;47.974;21.722;2022-09-09T07:59:03;12.60;;;8.53;;
71298;SDS011;59083;47.974;21.722;2022-09-09T08:02:08;13.00;;;8.43;;
71298;SDS011;59083;47.974;21.722;2022-09-09T08:05:10;15.60;;;8.68;;
71298;SDS011;59083;47.974;21.722;2022-09-09T08:08:12;11.55;;;7.65;;
71298;SDS011;59083;47.974;21.722;2022-09-09T08:11:14;10.35;;;7.40;;
71298;SDS011;59083;47.974;21.722;2022-09-09T08:14:17;13.33;;;7.87;;
71298;SDS011;59083;47.974;21.722;2022-09-09T08:17:19;11.73;;;8.00;;
71298;SDS011;59083;47.974;21.722;2022-09-09T08:20:21;12.85;;;8.00;;
71298;SDS011;59083;47.974;21.722;2022-09-09T08:23:24;12.52;;;7.95;;
71298;SDS011;59083;47.974;21.722;2022-09-09T08:26:27;12.75;;;8.10;;
71298;SDS011;59083;47.974;21.722;2022-09-09T08:29:31;11.10;;;7.87;;
71298;SDS011;59083;47.974;21.722;2022-09-09T08:32:32;11.80;;;8.27;;
71298;SDS011;59083;47.974;21.722;2022-09-09T08:35:33;11.73;;;8.05;;
71298;SDS011;59083;47.974;21.722;2022-09-09T08:38:35;11.50;;;8.10;;
71298;SDS011;59083;47.974;21.722;2022-09-09T08:45:19;12.27;;;8.57;;
71298;SDS011;59083;47.974;21.722;2022-09-09T08:51:48;13.05;;;8.30;;
71298;SDS011;59083;47.974;21.722;2022-09-09T08:54:51;13.60;;;8.48;;
71298;SDS011;59083;47.974;21.722;2022-09-09T08:57:57;13.05;;;8.25;;
71298;SDS011;59083;47.974;21.722;2022-09-09T09:01:10;12.47;;;8.27;;
71298;SDS011;59083;47.974;21.722;2022-09-09T09:04:56;15.73;;;7.77;;
71298;SDS011;59083;47.974;21.722;2022-09-09T09:08:22;12.77;;;7.90;;
71298;SDS011;59083;47.974;21.722;2022-09-09T09:11:36;11.68;;;7.85;;
71298;SDS011;59083;47.974;21.722;2022-09-09T09:14:39;12.75;;;8.25;;
71298;SDS011;59083;47.974;21.722;2022-09-09T09:17:42;14.53;;;9.60;;
71298;SDS011;59083;47.974;21.722;2022-09-09T09:24:56;10.77;;;7.80;;
71298;SDS011;59083;47.974;21.722;2022-09-09T09:28:03;12.02;;;8.55;;
71298;SDS011;59083;47.974;21.722;2022-09-09T09:31:18;12.37;;;8.20;;
71298;SDS011;59083;47.974;21.722;2022-09-09T09:34:21;13.90;;;7.87;;
71298;SDS011;59083;47.974;21.722;2022-09-09T09:37:33;10.70;;;8.00;;
71298;SDS011;59083;47.974;21.722;2022-09-09T09:40:47;11.95;;;8.27;;
71298;SDS011;59083;47.974;21.722;2022-09-09T09:43:55;11.57;;;8.40;;
71298;SDS011;59083;47.974;21.722;2022-09-09T09:47:07;10.98;;;8.07;;
71298;SDS011;59083;47.974;21.722;2022-09-09T09:50:18;11.37;;;8.33;;
71298;SDS011;59083;47.974;21.722;2022-09-09T09:53:28;11.53;;;7.80;;
71298;SDS011;59083;47.974;21.722;2022-09-09T09:56:32;13.52;;;8.98;;
71298;SDS011;59083;47.974;21.722;2022-09-09T09:59:35;11.23;;;8.30;;
71298;SDS011;59083;47.974;21.722;2022-09-09T10:02:38;14.32;;;8.30;;
71298;SDS011;59083;47.974;21.722;2022-09-09T10:05:44;11.33;;;8.57;;
71298;SDS011;59083;47.974;21.722;2022-09-09T10:08:47;13.27;;;8.10;;
71298;SDS011;59083;47.974;21.722;2022-09-09T10:12:16;11.25;;;8.15;;
71298;SDS011;59083;47.974;21.722;2022-09-09T10:15:30;10.82;;;7.78;;
71298;SDS011;59083;47.974;21.722;2022-09-09T10:18:46;11.55;;;8.20;;
71298;SDS011;59083;47.974;21.722;2022-09-09T10:25:27;14.57;;;8.83;;
71298;SDS011;59083;47.974;21.722;2022-09-09T10:28:58;12.25;;;8.25;;
71298;SDS011;59083;47.974;21.722;2022-09-09T10:48:18;15.68;;;8.25;;
71298;SDS011;59083;47.974;21.722;2022-09-09T10:51:39;10.68;;;8.40;;
71298;SDS011;59083;47.974;21.722;2022-09-09T10:58:10;12.20;;;7.57;;
71298;SDS011;59083;47.974;21.722;2022-09-09T11:04:40;13.82;;;8.73;;
71298;SDS011;59083;47.974;21.722;2022-09-09T11:07:57;11.18;;;8.23;;
71298;SDS011;59083;47.974;21.722;2022-09-09T11:17:44;9.88;;;6.00;;
71298;SDS011;59083;47.974;21.722;2022-09-09T11:21:09;10.18;;;5.47;;
71298;SDS011;59083;47.974;21.722;2022-09-09T11:24:29;10.77;;;5.37;;
71298;SDS011;59083;47.974;21.722;2022-09-09T11:41:01;9.45;;;5.78;;
71298;SDS011;59083;47.974;21.722;2022-09-09T11:44:17;9.65;;;6.10;;
71298;SDS011;59083;47.974;21.722;2022-09-09T11:47:30;8.83;;;5.77;;
71298;SDS011;59083;47.974;21.722;2022-09-09T11:50:35;11.35;;;6.20;;
71298;SDS011;59083;47.974;21.722;2022-09-09T11:53:51;9.65;;;5.70;;
71298;SDS011;59083;47.974;21.722;2022-09-09T11:56:54;8.90;;;5.85;;
71298;SDS011;59083;47.974;21.722;2022-09-09T11:59:56;10.87;;;5.80;;
71298;SDS011;59083;47.974;21.722;2022-09-09T12:02:57;10.53;;;6.07;;
71298;SDS011;59083;47.974;21.722;2022-09-09T12:05:59;20.00;;;6.55;;
71298;SDS011;59083;47.974;21.722;2022-09-09T12:09:16;9.02;;;5.70;;
71298;SDS011;59083;47.974;21.722;2022-09-09T12:12:38;9.75;;;5.80;;
71298;SDS011;59083;47.974;21.722;2022-09-09T12:15:46;10.00;;;5.45;;
71298;SDS011;59083;47.974;21.722;2022-09-09T12:18:49;10.37;;;6.00;;
71298;SDS011;59083;47.974;21.722;2022-09-09T12:28:54;9.10;;;5.95;;
71298;SDS011;59083;47.974;21.722;2022-09-09T12:32:11;8.15;;;6.10;;
71298;SDS011;59083;47.974;21.722;2022-09-09T12:35:22;7.50;;;5.47;;
71298;SDS011;59083;47.974;21.722;2022-09-09T12:38:36;8.00;;;5.12;;
71298;SDS011;59083;47.974;21.722;2022-09-09T12:41:39;8.43;;;5.22;;
71298;SDS011;59083;47.974;21.722;2022-09-09T12:44:49;8.07;;;5.37;;
71298;SDS011;59083;47.974;21.722;2022-09-09T12:51:27;8.77;;;6.00;;
71298;SDS011;59083;47.974;21.722;2022-09-09T12:54:31;11.80;;;5.70;;
71298;SDS011;59083;47.974;21.722;2022-09-09T12:57:36;11.93;;;5.80;;
71298;SDS011;59083;47.974;21.722;2022-09-09T13:00:48;9.30;;;5.35;;
71298;SDS011;59083;47.974;21.722;2022-09-09T13:03:51;7.75;;;5.30;;
71298;SDS011;59083;47.974;21.722;2022-09-09T13:06:53;8.37;;;5.47;;
71298;SDS011;59083;47.974;21.722;2022-09-09T13:09:56;9.55;;;5.60;;
71298;SDS011;59083;47.974;21.722;2022-09-09T13:12:57;8.93;;;5.22;;
71298;SDS011;59083;47.974;21.722;2022-09-09T13:15:59;8.48;;;5.57;;
71298;SDS011;59083;47.974;21.722;2022-09-09T13:19:09;8.63;;;5.23;;
71298;SDS011;59083;47.974;21.722;2022-09-09T13:25:33;9.27;;;5.60;;
71298;SDS011;59083;47.974;21.722;2022-09-09T13:28:35;9.45;;;5.28;;
71298;SDS011;59083;47.974;21.722;2022-09-09T13:31:37;11.60;;;5.80;;
71298;SDS011;59083;47.974;21.722;2022-09-09T13:34:38;9.38;;;5.70;;
71298;SDS011;59083;47.974;21.722;2022-09-09T13:37:40;9.70;;;5.60;;
71298;SDS011;59083;47.974;21.722;2022-09-09T13:40:55;11.85;;;5.80;;
71298;SDS011;59083;47.974;21.722;2022-09-09T13:43:58;8.07;;;5.32;;
71298;SDS011;59083;47.974;21.722;2022-09-09T13:47:19;9.50;;;5.72;;
71298;SDS011;59083;47.974;21.722;2022-09-09T13:50:27;9.88;;;5.40;;
71298;SDS011;59083;47.974;21.722;2022-09-09T13:53:30;7.80;;;5.80;;
71298;SDS011;59083;47.974;21.722;2022-09-09T13:56:32;20.60;;;6.35;;
71298;SDS011;59083;47.974;21.722;2022-09-09T13:59:35;13.45;;;5.93;;
71298;SDS011;59083;47.974;21.722;2022-09-09T14:02:37;7.60;;;5.25;;
71298;SDS011;59083;47.974;21.722;2022-09-09T14:05:40;8.47;;;5.60;;
71298;SDS011;59083;47.974;21.722;2022-09-09T14:08:41;8.07;;;5.40;;
71298;SDS011;59083;47.974;21.722;2022-09-09T14:11:42;8.70;;;5.00;;
71298;SDS011;59083;47.974;21.722;2022-09-09T14:14:44;7.80;;;5.00;;
71298;SDS011;59083;47.974;21.722;2022-09-09T14:17:45;8.15;;;5.50;;
71298;SDS011;59083;47.974;21.722;2022-09-09T14:20:47;9.52;;;5.28;;
71298;SDS011;59083;47.974;21.722;2022-09-09T14:23:48;7.10;;;4.87;;
71298;SDS011;59083;47.974;21.722;2022-09-09T14:26:50;8.15;;;5.40;;
71298;SDS011;59083;47.974;21.722;2022-09-09T14:29:51;9.05;;;5.07;;
71298;SDS011;59083;47.974;21.722;2022-09-09T14:32:53;8.95;;;5.40;;
71298;SDS011;59083;47.974;21.722;2022-09-09T14:35:55;9.93;;;5.72;;
71298;SDS011;59083;47.974;21.722;2022-09-09T14:39:00;9.00;;;5.70;;
71298;SDS011;59083;47.974;21.722;2022-09-09T14:42:01;7.35;;;5.25;;
71298;SDS011;59083;47.974;21.722;2022-09-09T14:45:03;8.63;;;5.35;;
71298;SDS011;59083;47.974;21.722;2022-09-09T14:48:04;11.95;;;5.70;;
71298;SDS011;59083;47.974;21.722;2022-09-09T14:51:06;8.43;;;5.07;;
71298;SDS011;59083;47.974;21.722;2022-09-09T14:54:09;8.40;;;5.33;;
71298;SDS011;59083;47.974;21.722;2022-09-09T14:57:11;7.35;;;5.30;;
71298;SDS011;59083;47.974;21.722;2022-09-09T15:00:12;8.63;;;5.20;;
71298;SDS011;59083;47.974;21.722;2022-09-09T15:03:14;7.78;;;5.28;;
71298;SDS011;59083;47.974;21.722;2022-09-09T15:06:15;8.32;;;5.22;;
71298;SDS011;59083;47.974;21.722;2022-09-09T15:09:17;7.90;;;5.10;;
71298;SDS011;59083;47.974;21.722;2022-09-09T15:12:18;8.30;;;4.87;;
71298;SDS011;59083;47.974;21.722;2022-09-09T15:15:19;8.65;;;5.20;;
71298;SDS011;59083;47.974;21.722;2022-09-09T15:18:22;7.45;;;4.70;;
71298;SDS011;59083;47.974;21.722;2022-09-09T15:21:23;10.20;;;5.05;;
71298;SDS011;59083;47.974;21.722;2022-09-09T15:24:26;7.37;;;5.00;;
71298;SDS011;59083;47.974;21.722;2022-09-09T15:27:27;9.45;;;5.00;;
71298;SDS011;59083;47.974;21.722;2022-09-09T15:30:29;8.30;;;5.05;;
71298;SDS011;59083;47.974;21.722;2022-09-09T15:33:30;9.52;;;4.78;;
71298;SDS011;59083;47.974;21.722;2022-09-09T15:36:34;7.53;;;4.33;;
71298;SDS011;59083;47.974;21.722;2022-09-09T15:39:35;7.50;;;4.80;;
71298;SDS011;59083;47.974;21.722;2022-09-09T15:42:36;6.75;;;4.57;;
71298;SDS011;59083;47.974;21.722;2022-09-09T15:45:37;7.82;;;4.57;;
71298;SDS011;59083;47.974;21.722;2022-09-09T15:48:39;7.75;;;4.80;;
71298;SDS011;59083;47.974;21.722;2022-09-09T15:51:41;8.13;;;4.80;;
71298;SDS011;59083;47.974;21.722;2022-09-09T15:54:43;7.20;;;4.70;;
71298;SDS011;59083;47.974;21.722;2022-09-09T15:57:46;8.88;;;5.00;;
71298;SDS011;59083;47.974;21.722;2022-09-09T16:00:47;8.18;;;5.15;;
71298;SDS011;59083;47.974;21.722;2022-09-09T16:03:49;8.23;;;4.78;;
71298;SDS011;59083;47.974;21.722;2022-09-09T16:07:02;8.60;;;5.83;;
71298;SDS011;59083;47.974;21.722;2022-09-09T16:10:04;7.57;;;4.90;;
71298;SDS011;59083;47.974;21.722;2022-09-09T16:13:06;8.77;;;5.00;;
71298;SDS011;59083;47.974;21.722;2022-09-09T16:16:08;8.20;;;5.30;;
71298;SDS011;59083;47.974;21.722;2022-09-09T16:19:13;9.07;;;5.20;;
71298;SDS011;59083;47.974;21.722;2022-09-09T16:22:15;10.80;;;5.45;;
71298;SDS011;59083;47.974;21.722;2022-09-09T16:25:16;8.33;;;5.17;;
71298;SDS011;59083;47.974;21.722;2022-09-09T16:28:19;8.98;;;5.43;;
71298;SDS011;59083;47.974;21.722;2022-09-09T16:31:21;8.45;;;5.50;;
71298;SDS011;59083;47.974;21.722;2022-09-09T16:34:24;8.85;;;5.25;;
71298;SDS011;59083;47.974;21.722;2022-09-09T16:37:25;11.93;;;7.40;;
71298;SDS011;59083;47.974;21.722;2022-09-09T16:40:27;8.90;;;5.70;;
71298;SDS011;59083;47.974;21.722;2022-09-09T16:43:28;9.15;;;5.20;;
71298;SDS011;59083;47.974;21.722;2022-09-09T16:46:30;7.62;;;5.15;;
71298;SDS011;59083;47.974;21.722;2022-09-09T16:49:33;11.65;;;7.40;;
71298;SDS011;59083;47.974;21.722;2022-09-09T16:52:35;7.90;;;5.32;;
71298;SDS011;59083;47.974;21.722;2022-09-09T16:55:39;9.00;;;5.50;;
71298;SDS011;59083;47.974;21.722;2022-09-09T16:58:42;9.38;;;5.60;;
71298;SDS011;59083;47.974;21.722;2022-09-09T17:01:47;7.70;;;5.05;;
71298;SDS011;59083;47.974;21.722;2022-09-09T17:04:50;9.00;;;5.62;;
71298;SDS011;59083;47.974;21.722;2022-09-09T17:07:51;10.65;;;5.87;;
71298;SDS011;59083;47.974;21.722;2022-09-09T17:10:52;8.20;;;5.80;;
71298;SDS011;59083;47.974;21.722;2022-09-09T17:13:54;9.13;;;5.70;;
71298;SDS011;59083;47.974;21.722;2022-09-09T17:16:57;9.00;;;5.53;;
71298;SDS011;59083;47.974;21.722;2022-09-09T17:19:58;10.35;;;6.28;;
71298;SDS011;59083;47.974;21.722;2022-09-09T17:22:59;10.02;;;6.47;;
71298;SDS011;59083;47.974;21.722;2022-09-09T17:26:00;11.10;;;6.30;;
71298;SDS011;59083;47.974;21.722;2022-09-09T17:29:02;9.88;;;6.50;;
71298;SDS011;59083;47.974;21.722;2022-09-09T17:32:04;9.43;;;6.05;;
71298;SDS011;59083;47.974;21.722;2022-09-09T17:35:06;9.57;;;6.00;;
71298;SDS011;59083;47.974;21.722;2022-09-09T17:38:07;9.57;;;6.07;;
71298;SDS011;59083;47.974;21.722;2022-09-09T17:44:12;13.55;;;6.70;;
71298;SDS011;59083;47.974;21.722;2022-09-09T17:47:13;10.93;;;6.47;;
71298;SDS011;59083;47.974;21.722;2022-09-09T17:50:14;10.30;;;6.00;;
71298;SDS011;59083;47.974;21.722;2022-09-09T17:53:16;10.73;;;6.57;;
71298;SDS011;59083;47.974;21.722;2022-09-09T17:56:18;9.40;;;5.93;;
71298;SDS011;59083;47.974;21.722;2022-09-09T17:59:24;14.57;;;6.68;;
71298;SDS011;59083;47.974;21.722;2022-09-09T18:02:26;10.95;;;6.78;;
71298;SDS011;59083;47.974;21.722;2022-09-09T18:05:27;11.12;;;6.93;;
71298;SDS011;59083;47.974;21.722;2022-09-09T18:08:29;12.88;;;7.40;;
71298;SDS011;59083;47.974;21.722;2022-09-09T18:11:32;11.87;;;6.60;;
71298;SDS011;59083;47.974;21.722;2022-09-09T18:14:36;12.02;;;6.87;;
71298;SDS011;59083;47.974;21.722;2022-09-09T18:17:37;12.13;;;6.60;;
71298;SDS011;59083;47.974;21.722;2022-09-09T18:20:39;10.43;;;6.65;;
71298;SDS011;59083;47.974;21.722;2022-09-09T18:23:41;11.40;;;6.55;;
71298;SDS011;59083;47.974;21.722;2022-09-09T18:26:42;11.30;;;6.73;;
71298;SDS011;59083;47.974;21.722;2022-09-09T18:29:45;9.30;;;6.37;;
71298;SDS011;59083;47.974;21.722;2022-09-09T18:32:47;10.25;;;6.50;;
71298;SDS011;59083;47.974;21.722;2022-09-09T18:35:50;12.60;;;7.80;;
71298;SDS011;59083;47.974;21.722;2022-09-09T18:38:51;12.13;;;6.75;;
71298;SDS011;59083;47.974;21.722;2022-09-09T18:41:59;10.23;;;6.63;;
71298;SDS011;59083;47.974;21.722;2022-09-09T18:45:01;11.65;;;6.55;;
71298;SDS011;59083;47.974;21.722;2022-09-09T18:48:02;10.32;;;6.65;;
71298;SDS011;59083;47.974;21.722;2022-09-09T18:51:08;11.25;;;6.70;;
71298;SDS011;59083;47.974;21.722;2022-09-09T18:54:12;13.00;;;6.70;;
71298;SDS011;59083;47.974;21.722;2022-09-09T18:57:15;9.57;;;6.20;;
71298;SDS011;59083;47.974;21.722;2022-09-09T19:00:18;15.18;;;8.18;;
71298;SDS011;59083;47.974;21.722;2022-09-09T19:03:19;11.82;;;6.72;;
71298;SDS011;59083;47.974;21.722;2022-09-09T19:06:22;13.98;;;6.93;;
71298;SDS011;59083;47.974;21.722;2022-09-09T19:09:26;10.90;;;6.32;;
71298;SDS011;59083;47.974;21.722;2022-09-09T19:12:30;13.20;;;7.93;;
71298;SDS011;59083;47.974;21.722;2022-09-09T19:15:34;11.10;;;6.97;;
71298;SDS011;59083;47.974;21.722;2022-09-09T19:18:36;9.98;;;6.70;;
71298;SDS011;59083;47.974;21.722;2022-09-09T19:21:39;11.00;;;6.70;;
71298;SDS011;59083;47.974;21.722;2022-09-09T19:24:42;11.07;;;6.55;;
71298;SDS011;59083;47.974;21.722;2022-09-09T19:27:45;13.23;;;6.57;;
71298;SDS011;59083;47.974;21.722;2022-09-09T19:30:46;10.35;;;6.43;;
71298;SDS011;59083;47.974;21.722;2022-09-09T19:33:48;9.77;;;6.45;;
71298;SDS011;59083;47.974;21.722;2022-09-09T19:36:51;11.07;;;6.35;;
71298;SDS011;59083;47.974;21.722;2022-09-09T19:39:52;10.18;;;5.90;;
71298;SDS011;59083;47.974;21.722;2022-09-09T19:42:53;9.93;;;6.67;;
71298;SDS011;59083;47.974;21.722;2022-09-09T19:45:55;9.02;;;5.93;;
71298;SDS011;59083;47.974;21.722;2022-09-09T19:48:59;12.63;;;6.32;;